sensor_id;sensor_type;location;lat;lon;timestamp;P1;durP1;ratioP1;P2;durP2;ratioP2
20110;SDS011;10216;42.658;23.248;2022-09-06T00:01:40;6.60;;;5.50;;
20110;SDS011;10216;42.658;23.248;2022-09-06T00:04:06;8.53;;;5.97;;
20110;SDS011;10216;42.658;23.248;2022-09-06T00:06:32;6.83;;;6.20;;
20110;SDS011;10216;42.658;23.248;2022-09-06T00:08:58;6.87;;;6.03;;
20110;SDS011;10216;42.658;23.248;2022-09-06T00:11:23;6.03;;;5.43;;
20110;SDS011;10216;42.658;23.248;2022-09-06T00:13:49;6.37;;;5.77;;
20110;SDS011;10216;42.658;23.248;2022-09-06T00:16:15;6.43;;;5.73;;
20110;SDS011;10216;42.658;23.248;2022-09-06T00:18:43;6.57;;;5.93;;
20110;SDS011;10216;42.658;23.248;2022-09-06T00:21:17;6.23;;;5.60;;
20110;SDS011;10216;42.658;23.248;2022-09-06T00:23:45;6.80;;;6.13;;
20110;SDS011;10216;42.658;23.248;2022-09-06T00:26:11;7.03;;;6.33;;
20110;SDS011;10216;42.658;23.248;2022-09-06T00:28:37;7.87;;;5.80;;
20110;SDS011;10216;42.658;23.248;2022-09-06T00:33:39;10.33;;;6.23;;
20110;SDS011;10216;42.658;23.248;2022-09-06T00:36:05;10.07;;;5.73;;
20110;SDS011;10216;42.658;23.248;2022-09-06T00:38:31;6.63;;;6.03;;
20110;SDS011;10216;42.658;23.248;2022-09-06T00:40:57;7.30;;;6.60;;
20110;SDS011;10216;42.658;23.248;2022-09-06T00:43:22;8.27;;;6.17;;
20110;SDS011;10216;42.658;23.248;2022-09-06T00:45:50;9.33;;;6.07;;
20110;SDS011;10216;42.658;23.248;2022-09-06T00:48:17;6.67;;;5.97;;
20110;SDS011;10216;42.658;23.248;2022-09-06T00:50:43;7.73;;;6.30;;
20110;SDS011;10216;42.658;23.248;2022-09-06T00:53:12;6.57;;;5.80;;
20110;SDS011;10216;42.658;23.248;2022-09-06T00:55:38;6.83;;;5.93;;
20110;SDS011;10216;42.658;23.248;2022-09-06T00:58:05;6.50;;;5.80;;
20110;SDS011;10216;42.658;23.248;2022-09-06T01:00:31;6.93;;;5.63;;
20110;SDS011;10216;42.658;23.248;2022-09-06T01:02:57;7.77;;;5.70;;
20110;SDS011;10216;42.658;23.248;2022-09-06T01:05:22;7.90;;;5.90;;
20110;SDS011;10216;42.658;23.248;2022-09-06T01:08:14;7.53;;;5.90;;
20110;SDS011;10216;42.658;23.248;2022-09-06T01:11:14;8.43;;;5.80;;
20110;SDS011;10216;42.658;23.248;2022-09-06T01:13:55;6.87;;;6.13;;
20110;SDS011;10216;42.658;23.248;2022-09-06T01:16:42;7.37;;;6.20;;
20110;SDS011;10216;42.658;23.248;2022-09-06T01:30:27;6.23;;;5.63;;
20110;SDS011;10216;42.658;23.248;2022-09-06T01:32:59;8.37;;;6.10;;
20110;SDS011;10216;42.658;23.248;2022-09-06T01:38:08;6.90;;;6.20;;
20110;SDS011;10216;42.658;23.248;2022-09-06T01:40:36;8.03;;;6.20;;
20110;SDS011;10216;42.658;23.248;2022-09-06T01:43:02;7.27;;;6.07;;
20110;SDS011;10216;42.658;23.248;2022-09-06T01:56:29;6.37;;;5.77;;
20110;SDS011;10216;42.658;23.248;2022-09-06T02:01:33;7.43;;;6.07;;
20110;SDS011;10216;42.658;23.248;2022-09-06T02:04:16;7.53;;;6.43;;
20110;SDS011;10216;42.658;23.248;2022-09-06T02:06:56;6.40;;;5.53;;
20110;SDS011;10216;42.658;23.248;2022-09-06T02:09:28;6.70;;;5.73;;
20110;SDS011;10216;42.658;23.248;2022-09-06T02:11:59;6.20;;;5.60;;
20110;SDS011;10216;42.658;23.248;2022-09-06T02:14:30;6.73;;;5.77;;
20110;SDS011;10216;42.658;23.248;2022-09-06T02:17:00;7.03;;;5.90;;
20110;SDS011;10216;42.658;23.248;2022-09-06T02:19:47;6.90;;;5.80;;
20110;SDS011;10216;42.658;23.248;2022-09-06T02:22:19;7.03;;;5.93;;
20110;SDS011;10216;42.658;23.248;2022-09-06T02:24:48;6.97;;;5.53;;
20110;SDS011;10216;42.658;23.248;2022-09-06T02:27:16;6.63;;;6.03;;
20110;SDS011;10216;42.658;23.248;2022-09-06T02:29:42;8.43;;;6.50;;
20110;SDS011;10216;42.658;23.248;2022-09-06T02:34:38;6.73;;;6.13;;
20110;SDS011;10216;42.658;23.248;2022-09-06T02:37:05;6.53;;;5.83;;
20110;SDS011;10216;42.658;23.248;2022-09-06T02:39:31;6.70;;;6.00;;
20110;SDS011;10216;42.658;23.248;2022-09-06T02:41:57;6.47;;;5.87;;
20110;SDS011;10216;42.658;23.248;2022-09-06T02:44:23;6.93;;;6.17;;
20110;SDS011;10216;42.658;23.248;2022-09-06T02:46:48;7.10;;;5.73;;
20110;SDS011;10216;42.658;23.248;2022-09-06T02:49:14;9.23;;;6.30;;
20110;SDS011;10216;42.658;23.248;2022-09-06T02:51:39;6.47;;;5.87;;
20110;SDS011;10216;42.658;23.248;2022-09-06T02:54:04;8.53;;;6.60;;
20110;SDS011;10216;42.658;23.248;2022-09-06T02:56:31;8.27;;;6.73;;
20110;SDS011;10216;42.658;23.248;2022-09-06T02:58:58;6.60;;;6.00;;
20110;SDS011;10216;42.658;23.248;2022-09-06T03:01:23;7.70;;;6.17;;
20110;SDS011;10216;42.658;23.248;2022-09-06T03:03:49;6.47;;;5.87;;
20110;SDS011;10216;42.658;23.248;2022-09-06T03:06:14;9.07;;;6.77;;
20110;SDS011;10216;42.658;23.248;2022-09-06T03:08:40;6.57;;;5.97;;
20110;SDS011;10216;42.658;23.248;2022-09-06T03:11:05;6.80;;;6.20;;
20110;SDS011;10216;42.658;23.248;2022-09-06T03:13:30;6.80;;;6.20;;
20110;SDS011;10216;42.658;23.248;2022-09-06T03:15:57;9.40;;;7.00;;
20110;SDS011;10216;42.658;23.248;2022-09-06T03:18:24;7.30;;;6.33;;
20110;SDS011;10216;42.658;23.248;2022-09-06T03:20:51;7.17;;;6.47;;
20110;SDS011;10216;42.658;23.248;2022-09-06T03:23:18;6.93;;;6.23;;
20110;SDS011;10216;42.658;23.248;2022-09-06T03:25:44;7.43;;;6.67;;
20110;SDS011;10216;42.658;23.248;2022-09-06T03:28:09;6.77;;;6.07;;
20110;SDS011;10216;42.658;23.248;2022-09-06T03:30:35;8.13;;;6.73;;
20110;SDS011;10216;42.658;23.248;2022-09-06T03:33:01;8.47;;;6.50;;
20110;SDS011;10216;42.658;23.248;2022-09-06T03:35:26;7.37;;;6.67;;
20110;SDS011;10216;42.658;23.248;2022-09-06T03:37:51;6.67;;;5.97;;
20110;SDS011;10216;42.658;23.248;2022-09-06T03:40:19;7.37;;;6.67;;
20110;SDS011;10216;42.658;23.248;2022-09-06T03:42:44;6.63;;;6.03;;
20110;SDS011;10216;42.658;23.248;2022-09-06T03:45:10;10.30;;;6.57;;
20110;SDS011;10216;42.658;23.248;2022-09-06T03:47:36;6.77;;;6.10;;
20110;SDS011;10216;42.658;23.248;2022-09-06T03:50:01;7.00;;;6.30;;
20110;SDS011;10216;42.658;23.248;2022-09-06T03:52:28;6.73;;;5.83;;
20110;SDS011;10216;42.658;23.248;2022-09-06T03:54:53;7.80;;;5.80;;
20110;SDS011;10216;42.658;23.248;2022-09-06T03:57:19;7.20;;;6.50;;
20110;SDS011;10216;42.658;23.248;2022-09-06T03:59:44;8.10;;;6.87;;
20110;SDS011;10216;42.658;23.248;2022-09-06T04:02:11;7.70;;;7.00;;
20110;SDS011;10216;42.658;23.248;2022-09-06T04:04:36;9.20;;;6.53;;
20110;SDS011;10216;42.658;23.248;2022-09-06T04:07:03;8.13;;;7.27;;
20110;SDS011;10216;42.658;23.248;2022-09-06T04:09:29;8.00;;;7.10;;
20110;SDS011;10216;42.658;23.248;2022-09-06T04:11:54;7.03;;;6.50;;
20110;SDS011;10216;42.658;23.248;2022-09-06T04:14:19;7.07;;;6.17;;
20110;SDS011;10216;42.658;23.248;2022-09-06T04:16:45;7.60;;;6.57;;
20110;SDS011;10216;42.658;23.248;2022-09-06T04:19:10;8.13;;;7.03;;
20110;SDS011;10216;42.658;23.248;2022-09-06T04:21:35;7.57;;;6.33;;
20110;SDS011;10216;42.658;23.248;2022-09-06T04:24:01;9.37;;;6.97;;
20110;SDS011;10216;42.658;23.248;2022-09-06T04:26:26;7.33;;;6.13;;
20110;SDS011;10216;42.658;23.248;2022-09-06T04:28:54;7.00;;;6.33;;
20110;SDS011;10216;42.658;23.248;2022-09-06T04:31:20;10.10;;;6.60;;
20110;SDS011;10216;42.658;23.248;2022-09-06T04:33:45;8.17;;;6.87;;
20110;SDS011;10216;42.658;23.248;2022-09-06T04:36:11;9.90;;;7.53;;
20110;SDS011;10216;42.658;23.248;2022-09-06T04:38:37;7.97;;;7.27;;
20110;SDS011;10216;42.658;23.248;2022-09-06T04:41:07;8.37;;;7.57;;
20110;SDS011;10216;42.658;23.248;2022-09-06T04:43:34;7.90;;;7.10;;
20110;SDS011;10216;42.658;23.248;2022-09-06T04:46:08;7.73;;;7.00;;
20110;SDS011;10216;42.658;23.248;2022-09-06T04:48:45;7.57;;;6.90;;
20110;SDS011;10216;42.658;23.248;2022-09-06T04:51:11;8.00;;;7.23;;
20110;SDS011;10216;42.658;23.248;2022-09-06T04:53:36;10.97;;;7.53;;
20110;SDS011;10216;42.658;23.248;2022-09-06T04:56:02;8.60;;;7.70;;
20110;SDS011;10216;42.658;23.248;2022-09-06T04:58:27;9.07;;;8.17;;
20110;SDS011;10216;42.658;23.248;2022-09-06T05:00:52;8.13;;;7.37;;
20110;SDS011;10216;42.658;23.248;2022-09-06T05:03:18;8.30;;;7.50;;
20110;SDS011;10216;42.658;23.248;2022-09-06T05:05:44;11.07;;;8.30;;
20110;SDS011;10216;42.658;23.248;2022-09-06T05:08:11;14.87;;;8.23;;
20110;SDS011;10216;42.658;23.248;2022-09-06T05:10:38;9.23;;;8.00;;
20110;SDS011;10216;42.658;23.248;2022-09-06T05:13:04;8.67;;;7.50;;
20110;SDS011;10216;42.658;23.248;2022-09-06T05:15:29;11.40;;;8.17;;
20110;SDS011;10216;42.658;23.248;2022-09-06T05:18:01;9.57;;;8.57;;
20110;SDS011;10216;42.658;23.248;2022-09-06T05:20:28;12.97;;;9.30;;
20110;SDS011;10216;42.658;23.248;2022-09-06T05:22:54;9.47;;;8.47;;
20110;SDS011;10216;42.658;23.248;2022-09-06T05:25:20;8.53;;;7.73;;
20110;SDS011;10216;42.658;23.248;2022-09-06T05:27:45;9.00;;;8.10;;
20110;SDS011;10216;42.658;23.248;2022-09-06T05:30:11;8.23;;;7.43;;
20110;SDS011;10216;42.658;23.248;2022-09-06T05:32:36;8.37;;;7.57;;
20110;SDS011;10216;42.658;23.248;2022-09-06T05:35:02;11.90;;;8.23;;
20110;SDS011;10216;42.658;23.248;2022-09-06T05:37:27;9.50;;;7.90;;
20110;SDS011;10216;42.658;23.248;2022-09-06T05:39:53;9.27;;;7.57;;
20110;SDS011;10216;42.658;23.248;2022-09-06T05:42:18;9.47;;;8.17;;
20110;SDS011;10216;42.658;23.248;2022-09-06T05:44:43;8.63;;;7.83;;
20110;SDS011;10216;42.658;23.248;2022-09-06T05:47:09;8.07;;;7.37;;
20110;SDS011;10216;42.658;23.248;2022-09-06T05:49:34;10.13;;;8.57;;
20110;SDS011;10216;42.658;23.248;2022-09-06T05:52:00;8.77;;;7.63;;
20110;SDS011;10216;42.658;23.248;2022-09-06T05:54:25;9.90;;;7.60;;
20110;SDS011;10216;42.658;23.248;2022-09-06T05:56:51;9.60;;;7.67;;
20110;SDS011;10216;42.658;23.248;2022-09-06T05:59:16;8.83;;;8.03;;
20110;SDS011;10216;42.658;23.248;2022-09-06T06:01:48;10.77;;;8.03;;
20110;SDS011;10216;42.658;23.248;2022-09-06T06:04:15;12.13;;;8.40;;
20110;SDS011;10216;42.658;23.248;2022-09-06T06:06:42;12.23;;;8.30;;
20110;SDS011;10216;42.658;23.248;2022-09-06T06:09:08;7.70;;;6.47;;
20110;SDS011;10216;42.658;23.248;2022-09-06T06:11:34;8.90;;;7.80;;
20110;SDS011;10216;42.658;23.248;2022-09-06T06:14:01;7.77;;;6.97;;
20110;SDS011;10216;42.658;23.248;2022-09-06T06:16:28;8.10;;;7.30;;
20110;SDS011;10216;42.658;23.248;2022-09-06T06:18:53;15.03;;;7.27;;
20110;SDS011;10216;42.658;23.248;2022-09-06T06:21:23;8.43;;;7.47;;
20110;SDS011;10216;42.658;23.248;2022-09-06T06:23:54;10.37;;;7.13;;
20110;SDS011;10216;42.658;23.248;2022-09-06T06:26:22;8.20;;;7.40;;
20110;SDS011;10216;42.658;23.248;2022-09-06T06:28:48;7.00;;;6.40;;
20110;SDS011;10216;42.658;23.248;2022-09-06T06:31:14;8.03;;;6.97;;
20110;SDS011;10216;42.658;23.248;2022-09-06T06:33:40;6.90;;;6.20;;
20110;SDS011;10216;42.658;23.248;2022-09-06T06:38:39;10.20;;;7.10;;
20110;SDS011;10216;42.658;23.248;2022-09-06T06:41:06;8.23;;;6.60;;
20110;SDS011;10216;42.658;23.248;2022-09-06T06:43:33;8.27;;;7.47;;
20110;SDS011;10216;42.658;23.248;2022-09-06T06:46:02;13.73;;;7.40;;
20110;SDS011;10216;42.658;23.248;2022-09-06T06:48:32;8.13;;;7.30;;
20110;SDS011;10216;42.658;23.248;2022-09-06T06:50:58;9.57;;;7.33;;
20110;SDS011;10216;42.658;23.248;2022-09-06T06:53:24;9.90;;;8.03;;
20110;SDS011;10216;42.658;23.248;2022-09-06T06:55:49;8.87;;;6.70;;
20110;SDS011;10216;42.658;23.248;2022-09-06T06:58:15;8.73;;;7.07;;
20110;SDS011;10216;42.658;23.248;2022-09-06T07:00:41;7.70;;;6.87;;
20110;SDS011;10216;42.658;23.248;2022-09-06T07:03:08;8.73;;;7.43;;
20110;SDS011;10216;42.658;23.248;2022-09-06T07:05:34;8.27;;;7.13;;
20110;SDS011;10216;42.658;23.248;2022-09-06T07:08:00;7.97;;;6.10;;
20110;SDS011;10216;42.658;23.248;2022-09-06T07:10:26;8.27;;;6.73;;
20110;SDS011;10216;42.658;23.248;2022-09-06T07:12:51;9.30;;;6.93;;
20110;SDS011;10216;42.658;23.248;2022-09-06T07:15:17;8.57;;;6.60;;
20110;SDS011;10216;42.658;23.248;2022-09-06T07:17:43;6.80;;;6.20;;
20110;SDS011;10216;42.658;23.248;2022-09-06T07:20:09;8.50;;;6.87;;
20110;SDS011;10216;42.658;23.248;2022-09-06T07:22:35;8.47;;;6.80;;
20110;SDS011;10216;42.658;23.248;2022-09-06T07:25:01;7.37;;;6.40;;
20110;SDS011;10216;42.658;23.248;2022-09-06T07:27:27;9.83;;;7.60;;
20110;SDS011;10216;42.658;23.248;2022-09-06T07:29:53;9.87;;;8.00;;
20110;SDS011;10216;42.658;23.248;2022-09-06T07:32:18;9.00;;;7.60;;
20110;SDS011;10216;42.658;23.248;2022-09-06T07:34:43;9.57;;;6.97;;
20110;SDS011;10216;42.658;23.248;2022-09-06T07:37:09;8.37;;;6.80;;
20110;SDS011;10216;42.658;23.248;2022-09-06T07:39:34;7.57;;;6.47;;
20110;SDS011;10216;42.658;23.248;2022-09-06T07:42:01;8.23;;;7.10;;
20110;SDS011;10216;42.658;23.248;2022-09-06T07:44:27;7.93;;;6.97;;
20110;SDS011;10216;42.658;23.248;2022-09-06T07:46:53;8.23;;;7.00;;
20110;SDS011;10216;42.658;23.248;2022-09-06T07:49:19;8.03;;;6.67;;
20110;SDS011;10216;42.658;23.248;2022-09-06T07:51:44;7.83;;;6.93;;
20110;SDS011;10216;42.658;23.248;2022-09-06T07:54:11;8.50;;;6.70;;
20110;SDS011;10216;42.658;23.248;2022-09-06T07:56:36;10.27;;;7.63;;
20110;SDS011;10216;42.658;23.248;2022-09-06T07:59:02;8.57;;;7.00;;
20110;SDS011;10216;42.658;23.248;2022-09-06T08:01:33;8.70;;;6.87;;
20110;SDS011;10216;42.658;23.248;2022-09-06T08:04:01;8.43;;;7.63;;
20110;SDS011;10216;42.658;23.248;2022-09-06T08:06:37;7.67;;;6.23;;
20110;SDS011;10216;42.658;23.248;2022-09-06T08:09:08;6.83;;;6.00;;
20110;SDS011;10216;42.658;23.248;2022-09-06T08:11:34;13.97;;;6.80;;
20110;SDS011;10216;42.658;23.248;2022-09-06T08:14:02;7.10;;;6.40;;
20110;SDS011;10216;42.658;23.248;2022-09-06T08:16:29;6.90;;;5.93;;
20110;SDS011;10216;42.658;23.248;2022-09-06T08:18:59;7.10;;;5.70;;
20110;SDS011;10216;42.658;23.248;2022-09-06T08:21:27;9.07;;;5.67;;
20110;SDS011;10216;42.658;23.248;2022-09-06T08:23:57;7.93;;;6.87;;
20110;SDS011;10216;42.658;23.248;2022-09-06T08:26:24;8.00;;;5.87;;
20110;SDS011;10216;42.658;23.248;2022-09-06T08:28:56;9.80;;;6.33;;
20110;SDS011;10216;42.658;23.248;2022-09-06T08:31:24;8.23;;;6.27;;
20110;SDS011;10216;42.658;23.248;2022-09-06T08:33:50;5.83;;;5.33;;
20110;SDS011;10216;42.658;23.248;2022-09-06T08:36:15;6.70;;;5.83;;
20110;SDS011;10216;42.658;23.248;2022-09-06T08:38:41;7.87;;;5.73;;
20110;SDS011;10216;42.658;23.248;2022-09-06T08:43:38;8.77;;;5.70;;
20110;SDS011;10216;42.658;23.248;2022-09-06T08:46:05;6.00;;;5.40;;
20110;SDS011;10216;42.658;23.248;2022-09-06T08:48:33;7.20;;;5.60;;
20110;SDS011;10216;42.658;23.248;2022-09-06T09:00:01;5.47;;;4.97;;
20110;SDS011;10216;42.658;23.248;2022-09-06T09:02:39;8.63;;;4.85;;
20110;SDS011;10216;42.658;23.248;2022-09-06T09:05:17;6.38;;;4.80;;
20110;SDS011;10216;42.658;23.248;2022-09-06T09:07:49;4.53;;;4.13;;
20110;SDS011;10216;42.658;23.248;2022-09-06T09:10:23;4.20;;;3.72;;
20110;SDS011;10216;42.658;23.248;2022-09-06T09:12:53;4.80;;;4.40;;
20110;SDS011;10216;42.658;23.248;2022-09-06T09:15:19;5.07;;;4.22;;
20110;SDS011;10216;42.658;23.248;2022-09-06T09:17:46;4.63;;;4.03;;
20110;SDS011;10216;42.658;23.248;2022-09-06T09:20:12;4.97;;;4.45;;
20110;SDS011;10216;42.658;23.248;2022-09-06T09:22:40;4.35;;;4.05;;
20110;SDS011;10216;42.658;23.248;2022-09-06T09:25:06;5.40;;;4.90;;
20110;SDS011;10216;42.658;23.248;2022-09-06T09:27:35;4.65;;;4.25;;
20110;SDS011;10216;42.658;23.248;2022-09-06T09:30:04;4.95;;;4.53;;
20110;SDS011;10216;42.658;23.248;2022-09-06T09:35:31;5.07;;;4.60;;
20110;SDS011;10216;42.658;23.248;2022-09-06T09:40:54;8.70;;;7.15;;
20110;SDS011;10216;42.658;23.248;2022-09-06T09:43:28;6.35;;;5.75;;
20110;SDS011;10216;42.658;23.248;2022-09-06T09:49:49;6.55;;;5.05;;
20110;SDS011;10216;42.658;23.248;2022-09-06T09:51:51;7.22;;;5.30;;
20110;SDS011;10216;42.658;23.248;2022-09-06T09:54:35;6.40;;;4.45;;
20110;SDS011;10216;42.658;23.248;2022-09-06T09:57:05;14.05;;;12.55;;
20110;SDS011;10216;42.658;23.248;2022-09-06T10:02:01;19.38;;;13.70;;
20110;SDS011;10216;42.658;23.248;2022-09-06T10:07:48;4.25;;;3.78;;
20110;SDS011;10216;42.658;23.248;2022-09-06T10:12:47;4.65;;;4.25;;
20110;SDS011;10216;42.658;23.248;2022-09-06T10:17:58;6.72;;;4.20;;
20110;SDS011;10216;42.658;23.248;2022-09-06T10:20:26;4.07;;;3.78;;
20110;SDS011;10216;42.658;23.248;2022-09-06T10:23:18;5.60;;;3.80;;
20110;SDS011;10216;42.658;23.248;2022-09-06T10:26:07;4.45;;;4.05;;
20110;SDS011;10216;42.658;23.248;2022-09-06T10:36:32;3.80;;;3.50;;
20110;SDS011;10216;42.658;23.248;2022-09-06T10:39:02;3.72;;;3.42;;
20110;SDS011;10216;42.658;23.248;2022-09-06T10:46:43;3.70;;;3.40;;
20110;SDS011;10216;42.658;23.248;2022-09-06T10:49:10;4.47;;;3.28;;
20110;SDS011;10216;42.658;23.248;2022-09-06T10:51:55;4.85;;;3.88;;
20110;SDS011;10216;42.658;23.248;2022-09-06T10:54:25;4.60;;;3.58;;
20110;SDS011;10216;42.658;23.248;2022-09-06T10:56:59;4.38;;;3.70;;
20110;SDS011;10216;42.658;23.248;2022-09-06T10:59:47;3.95;;;3.47;;
20110;SDS011;10216;42.658;23.248;2022-09-06T11:05:24;3.90;;;3.38;;
20110;SDS011;10216;42.658;23.248;2022-09-06T11:07:55;5.38;;;4.25;;
20110;SDS011;10216;42.658;23.248;2022-09-06T11:10:32;4.65;;;3.35;;
20110;SDS011;10216;42.658;23.248;2022-09-06T11:23:46;3.42;;;3.13;;
20110;SDS011;10216;42.658;23.248;2022-09-06T11:28:54;2.75;;;2.55;;
20110;SDS011;10216;42.658;23.248;2022-09-06T11:34:00;3.90;;;3.10;;
20110;SDS011;10216;42.658;23.248;2022-09-06T11:39:11;3.03;;;2.67;;
20110;SDS011;10216;42.658;23.248;2022-09-06T11:41:39;4.25;;;2.90;;
20110;SDS011;10216;42.658;23.248;2022-09-06T11:44:09;3.67;;;2.60;;
20110;SDS011;10216;42.658;23.248;2022-09-06T11:51:40;2.63;;;2.42;;
20110;SDS011;10216;42.658;23.248;2022-09-06T12:04:19;2.88;;;2.40;;
20110;SDS011;10216;42.658;23.248;2022-09-06T12:09:34;2.65;;;2.45;;
20110;SDS011;10216;42.658;23.248;2022-09-06T12:12:02;2.70;;;2.50;;
20110;SDS011;10216;42.658;23.248;2022-09-06T12:24:53;3.20;;;2.67;;
20110;SDS011;10216;42.658;23.248;2022-09-06T12:30:10;3.28;;;2.97;;
20110;SDS011;10216;42.658;23.248;2022-09-06T12:35:12;3.03;;;2.80;;
20110;SDS011;10216;42.658;23.248;2022-09-06T12:37:53;2.95;;;2.50;;
20110;SDS011;10216;42.658;23.248;2022-09-06T12:40:19;2.17;;;1.95;;
20110;SDS011;10216;42.658;23.248;2022-09-06T12:42:47;2.42;;;1.90;;
20110;SDS011;10216;42.658;23.248;2022-09-06T12:45:15;2.63;;;2.20;;
20110;SDS011;10216;42.658;23.248;2022-09-06T12:47:42;2.10;;;1.90;;
20110;SDS011;10216;42.658;23.248;2022-09-06T12:50:22;1.77;;;1.67;;
20110;SDS011;10216;42.658;23.248;2022-09-06T12:52:59;2.05;;;1.95;;
20110;SDS011;10216;42.658;23.248;2022-09-06T12:55:31;3.92;;;1.70;;
20110;SDS011;10216;42.658;23.248;2022-09-06T12:58:07;3.97;;;1.70;;
20110;SDS011;10216;42.658;23.248;2022-09-06T13:00:39;1.80;;;1.70;;
20110;SDS011;10216;42.658;23.248;2022-09-06T13:03:22;1.80;;;1.70;;
20110;SDS011;10216;42.658;23.248;2022-09-06T13:05:53;2.10;;;2.00;;
20110;SDS011;10216;42.658;23.248;2022-09-06T13:08:25;2.55;;;2.00;;
20110;SDS011;10216;42.658;23.248;2022-09-06T13:11:02;2.67;;;1.95;;
20110;SDS011;10216;42.658;23.248;2022-09-06T13:13:34;2.88;;;2.13;;
20110;SDS011;10216;42.658;23.248;2022-09-06T13:16:00;2.45;;;2.25;;
20110;SDS011;10216;42.658;23.248;2022-09-06T13:18:33;2.22;;;2.00;;
20110;SDS011;10216;42.658;23.248;2022-09-06T13:21:03;2.45;;;1.88;;
20110;SDS011;10216;42.658;23.248;2022-09-06T13:23:46;2.58;;;2.00;;
20110;SDS011;10216;42.658;23.248;2022-09-06T13:26:30;1.83;;;1.50;;
20110;SDS011;10216;42.658;23.248;2022-09-06T13:31:49;2.58;;;1.70;;
20110;SDS011;10216;42.658;23.248;2022-09-06T13:34:20;1.83;;;1.65;;
20110;SDS011;10216;42.658;23.248;2022-09-06T13:36:54;2.05;;;1.80;;
20110;SDS011;10216;42.658;23.248;2022-09-06T13:39:29;2.35;;;1.95;;
20110;SDS011;10216;42.658;23.248;2022-09-06T13:42:00;1.90;;;1.70;;
20110;SDS011;10216;42.658;23.248;2022-09-06T13:44:36;3.05;;;1.92;;
20110;SDS011;10216;42.658;23.248;2022-09-06T13:47:03;1.73;;;1.55;;
20110;SDS011;10216;42.658;23.248;2022-09-06T13:49:29;1.80;;;1.70;;
20110;SDS011;10216;42.658;23.248;2022-09-06T13:52:00;4.53;;;2.60;;
20110;SDS011;10216;42.658;23.248;2022-09-06T13:54:28;3.70;;;2.47;;
20110;SDS011;10216;42.658;23.248;2022-09-06T13:56:54;2.20;;;2.10;;
20110;SDS011;10216;42.658;23.248;2022-09-06T13:59:20;4.25;;;2.20;;
20110;SDS011;10216;42.658;23.248;2022-09-06T14:01:57;2.13;;;1.88;;
20110;SDS011;10216;42.658;23.248;2022-09-06T14:04:25;1.98;;;1.88;;
20110;SDS011;10216;42.658;23.248;2022-09-06T14:06:52;3.22;;;2.13;;
20110;SDS011;10216;42.658;23.248;2022-09-06T14:09:18;2.13;;;2.00;;
20110;SDS011;10216;42.658;23.248;2022-09-06T14:11:43;2.40;;;2.20;;
20110;SDS011;10216;42.658;23.248;2022-09-06T14:14:09;4.93;;;2.25;;
20110;SDS011;10216;42.658;23.248;2022-09-06T14:16:36;2.25;;;1.90;;
20110;SDS011;10216;42.658;23.248;2022-09-06T14:19:02;6.63;;;2.80;;
20110;SDS011;10216;42.658;23.248;2022-09-06T14:21:28;2.53;;;2.03;;
20110;SDS011;10216;42.658;23.248;2022-09-06T14:23:53;3.38;;;1.92;;
20110;SDS011;10216;42.658;23.248;2022-09-06T14:26:20;2.88;;;2.10;;
20110;SDS011;10216;42.658;23.248;2022-09-06T14:28:46;3.10;;;1.90;;
20110;SDS011;10216;42.658;23.248;2022-09-06T14:31:20;2.75;;;1.88;;
20110;SDS011;10216;42.658;23.248;2022-09-06T14:33:47;9.73;;;8.82;;
20110;SDS011;10216;42.658;23.248;2022-09-06T14:36:14;3.13;;;2.38;;
20110;SDS011;10216;42.658;23.248;2022-09-06T14:38:43;1.90;;;1.80;;
20110;SDS011;10216;42.658;23.248;2022-09-06T14:41:10;2.45;;;2.25;;
20110;SDS011;10216;42.658;23.248;2022-09-06T14:43:38;2.65;;;2.20;;
20110;SDS011;10216;42.658;23.248;2022-09-06T14:46:06;4.75;;;2.10;;
20110;SDS011;10216;42.658;23.248;2022-09-06T14:48:35;3.25;;;2.20;;
20110;SDS011;10216;42.658;23.248;2022-09-06T14:53:40;4.80;;;2.70;;
20110;SDS011;10216;42.658;23.248;2022-09-06T14:56:07;3.37;;;2.30;;
20110;SDS011;10216;42.658;23.248;2022-09-06T14:58:34;3.75;;;2.17;;
20110;SDS011;10216;42.658;23.248;2022-09-06T15:03:42;5.90;;;3.70;;
20110;SDS011;10216;42.658;23.248;2022-09-06T15:06:11;4.15;;;2.95;;
20110;SDS011;10216;42.658;23.248;2022-09-06T15:08:37;3.47;;;3.17;;
20110;SDS011;10216;42.658;23.248;2022-09-06T15:11:02;3.53;;;3.23;;
20110;SDS011;10216;42.658;23.248;2022-09-06T15:13:31;4.10;;;3.70;;
20110;SDS011;10216;42.658;23.248;2022-09-06T15:15:56;3.47;;;3.17;;
20110;SDS011;10216;42.658;23.248;2022-09-06T15:18:22;5.57;;;3.00;;
20110;SDS011;10216;42.658;23.248;2022-09-06T15:20:47;4.87;;;4.27;;
20110;SDS011;10216;42.658;23.248;2022-09-06T15:23:13;4.73;;;2.90;;
20110;SDS011;10216;42.658;23.248;2022-09-06T15:25:48;3.23;;;2.43;;
20110;SDS011;10216;42.658;23.248;2022-09-06T15:28:15;2.43;;;2.23;;
20110;SDS011;10216;42.658;23.248;2022-09-06T15:30:41;3.67;;;2.40;;
20110;SDS011;10216;42.658;23.248;2022-09-06T15:33:07;3.00;;;2.37;;
20110;SDS011;10216;42.658;23.248;2022-09-06T15:35:34;3.23;;;2.17;;
20110;SDS011;10216;42.658;23.248;2022-09-06T15:38:00;2.30;;;2.10;;
20110;SDS011;10216;42.658;23.248;2022-09-06T15:40:25;4.53;;;2.30;;
20110;SDS011;10216;42.658;23.248;2022-09-06T15:42:53;4.57;;;2.67;;
20110;SDS011;10216;42.658;23.248;2022-09-06T15:45:19;3.13;;;2.40;;
20110;SDS011;10216;42.658;23.248;2022-09-06T15:47:44;8.87;;;6.30;;
20110;SDS011;10216;42.658;23.248;2022-09-06T15:50:09;4.40;;;3.13;;
20110;SDS011;10216;42.658;23.248;2022-09-06T15:52:35;3.87;;;3.50;;
20110;SDS011;10216;42.658;23.248;2022-09-06T15:55:00;3.43;;;3.07;;
20110;SDS011;10216;42.658;23.248;2022-09-06T15:57:44;3.17;;;2.23;;
20110;SDS011;10216;42.658;23.248;2022-09-06T16:00:11;2.60;;;2.40;;
20110;SDS011;10216;42.658;23.248;2022-09-06T16:02:37;3.77;;;3.00;;
20110;SDS011;10216;42.658;23.248;2022-09-06T16:05:03;5.17;;;2.40;;
20110;SDS011;10216;42.658;23.248;2022-09-06T16:07:32;4.63;;;2.50;;
20110;SDS011;10216;42.658;23.248;2022-09-06T16:09:57;3.37;;;2.60;;
20110;SDS011;10216;42.658;23.248;2022-09-06T16:12:24;3.00;;;2.70;;
20110;SDS011;10216;42.658;23.248;2022-09-06T16:14:50;4.70;;;2.50;;
20110;SDS011;10216;42.658;23.248;2022-09-06T16:17:16;3.30;;;2.77;;
20110;SDS011;10216;42.658;23.248;2022-09-06T16:19:41;3.27;;;2.77;;
20110;SDS011;10216;42.658;23.248;2022-09-06T16:22:06;3.40;;;3.00;;
20110;SDS011;10216;42.658;23.248;2022-09-06T16:24:32;2.93;;;2.60;;
20110;SDS011;10216;42.658;23.248;2022-09-06T16:26:58;4.30;;;3.90;;
20110;SDS011;10216;42.658;23.248;2022-09-06T16:29:23;4.33;;;3.93;;
20110;SDS011;10216;42.658;23.248;2022-09-06T16:31:48;4.70;;;3.53;;
20110;SDS011;10216;42.658;23.248;2022-09-06T16:34:14;3.67;;;3.10;;
20110;SDS011;10216;42.658;23.248;2022-09-06T16:36:40;3.97;;;3.47;;
20110;SDS011;10216;42.658;23.248;2022-09-06T16:39:06;4.40;;;2.90;;
20110;SDS011;10216;42.658;23.248;2022-09-06T16:41:36;3.90;;;3.30;;
20110;SDS011;10216;42.658;23.248;2022-09-06T16:44:04;3.77;;;2.87;;
20110;SDS011;10216;42.658;23.248;2022-09-06T16:46:30;6.13;;;3.47;;
20110;SDS011;10216;42.658;23.248;2022-09-06T16:48:59;4.40;;;2.87;;
20110;SDS011;10216;42.658;23.248;2022-09-06T16:51:27;5.90;;;3.60;;
20110;SDS011;10216;42.658;23.248;2022-09-06T16:53:54;3.40;;;3.10;;
20110;SDS011;10216;42.658;23.248;2022-09-06T16:56:21;3.50;;;3.17;;
20110;SDS011;10216;42.658;23.248;2022-09-06T16:58:49;5.33;;;3.40;;
20110;SDS011;10216;42.658;23.248;2022-09-06T17:01:19;3.87;;;3.27;;
20110;SDS011;10216;42.658;23.248;2022-09-06T17:03:45;4.87;;;3.60;;